AirNav   Everest Fuels
 
 1169 users online  

AL76 Mayfield (Private) Airport
Maplesville, Alabama, USA

GOING TO MAPLESVILLE?


FAA INFORMATION EFFECTIVE 21 MAY 2020

Location

FAA Identifier: AL76
Lat/Long: 32-50-55.4530N 086-52-11.9580W
32-50.924217N 086-52.199300W
32.8487369,-86.8699883
(estimated)
Elevation: 495 ft. / 151 m (estimated)
Variation: 00E (1985)
From city: 5 miles N of MAPLESVILLE, AL
Time zone: UTC -5 (UTC -6 during Standard Time)
Zip code: 36750

Airport Operations

Airport use: Private use. Permission required prior to landing
Activation date: 06/1987
Control tower: no
ARTCC: ATLANTA CENTER
FSS: ANNISTON FLIGHT SERVICE STATION
Attendance: UNATNDD
Wind indicator: yes
Segmented circle: no

Nearby radio navigation aids

VOR radial/distance  VOR name  Freq  Var
OKWr141/30.2BROOKWOOD VORTAC111.0000E

Airport Services

Runway Information

Runway 2/20

Dimensions: 3200 x 100 ft. / 975 x 30 m
Surface: turf
RUNWAY 2  RUNWAY 20
Traffic pattern: leftleft
Displaced threshold: 200 ft.no
Obstructions: none50 ft. trees, 4000 ft. from runway

Airport Ownership and Management from official FAA records

Ownership: Privately-owned
Owner: JEROME MAYFIELD
958 OLD RANDOLPH RD
MAPLESVILLE, AL 36750
Phone 251-424-0799
Manager: JEROME MAYFIELD
26699 MARTINIQUE DRIVE
ORANGE BEACH, AL 36561
Phone 251-424-0799

Airport Operational Statistics

Aircraft based on the field: 4
Single engine airplanes: 4
    

Additional Remarks

FOR CD CTC ATLANTA ARTCC AT 770-210-7692.

Instrument Procedures

There are no published instrument procedures at AL76.

Some nearby airports with instrument procedures:

0A8 - Bibb County Airport (12 nm NW)
02A - Chilton County Airport (13 nm E)
KEET - Shelby County Airport (20 nm N)
KEKY - Bessemer Airport (28 nm N)
1A9 - Prattville Airport - Grouby Field (31 nm SE)
 
Loc | Ops | Rwys | IFR | FBO | Links
Com | Nav | Svcs | Stats | Notes
Area around AL76 (Mayfield (Private) Airport)
 
Road maps at: MapQuest Bing Google
 
Aerial photo
No photo
 
Sectional chart

 
Airport distance calculator
Flying to Mayfield (Private) Airport? Find the distance to fly.

From to AL76

Sunrise and sunset
Times for 26-May-2020
 Local
(UTC-5)
 Zulu
(UTC)
Morning civil twilight05:1510:15
Sunrise05:4310:43
Sunset19:4600:46
Evening civil twilight20:1401:14

Current date and time
Zulu (UTC)  26-May-2020 23:13:29
Local (UTC-5)  26-May-2020 18:13:29
 
METAR
KEET 
21nm N 
262253Z AUTO VRB04KT 6SM -RA BR BKN010 BKN015 OVC022 21/20 A2995 RMK AO2 RAE08B51 SLP136 P0001 T02110200
KEKY 
28nm N 
262256Z AUTO 10010G17KT 10SM OVC009 20/20 A2996 RMK AO2 RAE34 CIG 007V017 SLP992 P0001 T02000200
K1A9 
31nm SE 
262255Z AUTO 07006KT 10SM SCT013 OVC022 23/22 A2993 RMK AO2 T02260215
KSEM 
31nm S 
262235Z AUTO 10007KT 3SM BR FEW049 FEW055 FEW075 22/21 A2991 RMK AO2 LTG DSNT SE-SW
KA08 
33nm SW 
262255Z AUTO 14007KT 110V180 10SM -DZ BKN032 BKN050 OVC090 21/21 A2991 RMK AO2 P0006 T02110211
KSCD 
34nm NE 
262255Z AUTO 08008KT 7SM -DZ SCT012 SCT022 OVC050 21/20 A2995 RMK AO2 P0002 T02080200
KMXF 
39nm SE 
262228Z AUTO 06007KT 10SM -DZ BKN016 OVC024 22/20 A2992 RMK AO2 SLP133
KMGM 
41nm SE 
262253Z 07007KT 4SM RA BR FEW022 SCT045 OVC060 23/21 A2993 RMK AO2 RAE21B40 SLP131 P0000 T02330211
TAF
KEET 
21nm N 
262125Z 2621/2718 11007KT 3SM -SHRA BKN015 OVC040 FM270400 10007KT 6SM BR VCSH OVC008 FM271000 11007KT 5SM BR OVC008 FM271500 13006KT 6SM BR OVC010 PROB30 2715/2718 4SM SHRA
NOTAMs
Click for the latest NOTAMs
NOTAMs are issued by the DoD/FAA and will open in a separate window not controlled by AirNav.

 

 
 

Would you like to see your business listed on this page?

 If your business provides an interesting product or service to pilots, flight crews, aircraft, or users of the Mayfield (Private) Airport, you should consider listing it here.  To start the listing process, click on the button below
 
Add a business
 

Other Pages about Mayfield (Private) Airport

Update a link
 
Copyright © AirNav, LLC. All rights reserved. Privacy Policy  Contact